createdAt,value
2018-06-02T00:07:58.724Z,26.8
2018-06-02T00:17:58.493Z,26.8
2018-06-02T00:27:57.216Z,26.8
2018-06-02T00:37:56.360Z,26.8
2018-06-02T00:47:55.865Z,26.8
2018-06-02T00:57:55.222Z,26.8
2018-06-02T01:07:54.052Z,26.8
2018-06-02T01:17:53.246Z,26.8
2018-06-02T01:27:52.504Z,26.8
2018-06-02T01:37:51.997Z,26.8
2018-06-02T01:47:51.198Z,26.8
2018-06-02T01:57:50.097Z,26.8
2018-06-02T02:07:49.339Z,26.8
2018-06-02T02:17:48.577Z,26.8
2018-06-02T02:27:47.778Z,26.7
2018-06-02T02:37:47.054Z,26.7
2018-06-02T02:47:46.220Z,26.8
2018-06-02T02:57:45.451Z,26.7
2018-06-02T03:07:45.283Z,26.8
2018-06-02T03:17:44.269Z,26.7
2018-06-02T03:27:43.105Z,26.7
2018-06-02T03:37:42.928Z,26.8
2018-06-02T03:47:41.619Z,26.8
2018-06-02T03:57:40.806Z,26.8
2018-06-02T04:07:40.340Z,26.8
2018-06-02T04:17:39.518Z,26.8
2018-06-02T04:27:38.775Z,26.8
2018-06-02T04:37:37.968Z,26.8
2018-06-02T04:47:37.482Z,26.8
2018-06-02T04:57:36.398Z,26.8
2018-06-02T05:07:35.326Z,26.9
2018-06-02T05:17:35.419Z,26.9
2018-06-02T05:27:33.833Z,26.9
2018-06-02T05:37:33.018Z,26.8
2018-06-02T05:47:32.234Z,26.8
2018-06-02T05:57:31.612Z,26.7
2018-06-02T06:07:30.946Z,26.6
2018-06-02T06:17:29.888Z,26.7
2018-06-02T06:27:29.436Z,26.8
2018-06-02T06:37:28.341Z,26.8
2018-06-02T06:47:27.570Z,26.8
2018-06-02T06:57:27.061Z,26.8
2018-06-02T07:07:26.334Z,26.7
2018-06-02T07:17:25.314Z,26.7
2018-06-02T07:27:24.764Z,26.6
2018-06-02T07:37:23.754Z,26.7
2018-06-02T07:47:22.896Z,26.7
2018-06-02T07:57:22.451Z,26.8
2018-06-02T08:07:21.355Z,26.8
2018-06-02T08:17:20.882Z,26.8
2018-06-02T08:27:19.854Z,26.8
2018-06-02T08:37:19.642Z,26.7
2018-06-02T08:47:18.859Z,26.6
2018-06-02T08:57:17.597Z,26.6
2018-06-02T09:07:16.714Z,26.6
2018-06-02T09:17:15.963Z,26.6
2018-06-02T09:27:15.186Z,26.6
2018-06-02T09:37:14.679Z,26.6
2018-06-02T09:47:14.299Z,26.6
2018-06-02T09:57:12.948Z,26.6
2018-06-02T10:07:12.129Z,26.6
2018-06-02T10:17:11.680Z,26.6
2018-06-02T10:27:10.597Z,26.7
2018-06-02T10:37:10.087Z,26.7
2018-06-02T10:47:09.334Z,26.7
2018-06-02T10:57:08.256Z,26.8
2018-06-02T11:07:07.769Z,26.8
2018-06-02T11:17:06.944Z,26.8
2018-06-02T11:27:05.952Z,26.8
2018-06-02T11:37:05.412Z,27
2018-06-02T11:47:04.331Z,27.1
2018-06-02T11:57:03.620Z,27.2
2018-06-02T12:07:03.170Z,27.3
2018-06-02T12:17:02.338Z,27.4
2018-06-02T12:27:01.559Z,27.4
2018-06-02T12:37:00.513Z,27.4
2018-06-02T12:46:59.741Z,27.4
2018-06-02T12:56:58.975Z,27.5
2018-06-02T13:06:58.425Z,27.4
2018-06-02T13:16:57.356Z,27.4
2018-06-02T13:26:56.596Z,27.3
2018-06-02T13:36:55.828Z,27.3
2018-06-02T13:46:55.139Z,27.3
2018-06-02T13:56:54.294Z,27.2
2018-06-02T14:06:53.797Z,27.1
2018-06-02T14:16:53.053Z,27.1
2018-06-02T14:26:52.296Z,27.1
2018-06-02T14:36:51.555Z,27.1
2018-06-02T14:46:50.440Z,27.1
2018-06-02T14:56:49.639Z,27.1
2018-06-02T15:06:49.172Z,27.1
2018-06-02T15:16:48.151Z,27.2
2018-06-02T15:26:47.335Z,27
2018-06-02T15:36:46.633Z,26.8
2018-06-02T15:46:45.808Z,26.8
2018-06-02T15:56:45.411Z,26.8
2018-06-02T16:06:44.597Z,26.8
2018-06-02T16:16:43.476Z,26.9
2018-06-02T16:26:42.743Z,26.9
2018-06-02T16:36:42.270Z,26.8
2018-06-02T16:46:41.175Z,26.7
2018-06-02T16:56:40.387Z,26.4
2018-06-02T17:06:40.193Z,26.6
2018-06-02T17:16:38.849Z,26.6
2018-06-02T17:26:38.108Z,26.7
2018-06-02T17:36:37.368Z,26.8
2018-06-02T17:46:36.659Z,26.8
2018-06-02T17:56:35.768Z,26.8
2018-06-02T18:06:35.391Z,26.8
2018-06-02T18:16:34.211Z,26.9
2018-06-02T18:26:33.459Z,26.9
2018-06-02T18:36:32.717Z,26.9
2018-06-02T18:46:32.217Z,26.8
2018-06-02T18:56:31.235Z,26.7
2018-06-02T19:06:30.425Z,26.8
2018-06-02T19:16:29.668Z,26.8
2018-06-02T19:26:29.119Z,26.8
2018-06-02T19:36:28.372Z,26.8
2018-06-02T19:46:27.270Z,26.8
2018-06-02T19:56:26.504Z,26.8
2018-06-02T20:06:25.732Z,26.9
2018-06-02T20:16:25.092Z,27
2018-06-02T20:26:24.660Z,27.1
2018-06-02T20:36:23.789Z,27.1
2018-06-02T20:46:22.674Z,27.1
2018-06-02T20:56:21.964Z,27.2
2018-06-02T21:06:21.424Z,27.2
2018-06-02T21:16:20.409Z,27.2
2018-06-02T21:26:19.604Z,27.2
2018-06-02T21:36:19.101Z,27.2
2018-06-02T21:46:18.047Z,27.3
2018-06-02T21:56:17.296Z,27.2
2018-06-02T22:06:16.548Z,27.3
2018-06-02T22:16:15.699Z,27.3
2018-06-02T22:26:15.034Z,27.3
2018-06-02T22:36:14.267Z,27.3
2018-06-02T22:46:13.708Z,27.3
2018-06-02T22:56:12.751Z,27.3
2018-06-02T23:06:11.867Z,27.3
2018-06-02T23:16:11.474Z,27.3
2018-06-02T23:26:10.631Z,27.3
2018-06-02T23:36:09.540Z,27.3
2018-06-02T23:46:08.759Z,27.3
2018-06-02T23:56:07.966Z,27.3
